sensor_id;sensor_type;location;lat;lon;timestamp;P1;durP1;ratioP1;P2;durP2;ratioP2
73940;SDS011;62294;48.554;10.202;2023-02-10T00:01:20;16.60;;;6.03;;
73940;SDS011;62294;48.554;10.202;2023-02-10T00:03:49;16.75;;;7.15;;
73940;SDS011;62294;48.554;10.202;2023-02-10T00:06:16;27.58;;;11.65;;
73940;SDS011;62294;48.554;10.202;2023-02-10T00:08:48;23.75;;;8.80;;
73940;SDS011;62294;48.554;10.202;2023-02-10T00:11:15;11.75;;;6.07;;
73940;SDS011;62294;48.554;10.202;2023-02-10T00:13:42;26.92;;;8.57;;
73940;SDS011;62294;48.554;10.202;2023-02-10T00:16:11;24.30;;;8.32;;
73940;SDS011;62294;48.554;10.202;2023-02-10T00:18:39;16.88;;;7.47;;
73940;SDS011;62294;48.554;10.202;2023-02-10T00:21:06;24.95;;;9.75;;
73940;SDS011;62294;48.554;10.202;2023-02-10T00:23:35;21.58;;;8.18;;
73940;SDS011;62294;48.554;10.202;2023-02-10T00:26:02;17.38;;;7.88;;
73940;SDS011;62294;48.554;10.202;2023-02-10T00:28:31;22.83;;;7.82;;
73940;SDS011;62294;48.554;10.202;2023-02-10T00:30:59;16.85;;;6.25;;
73940;SDS011;62294;48.554;10.202;2023-02-10T00:33:26;22.23;;;7.93;;
73940;SDS011;62294;48.554;10.202;2023-02-10T00:35:52;20.00;;;7.60;;
73940;SDS011;62294;48.554;10.202;2023-02-10T00:38:18;20.80;;;9.70;;
73940;SDS011;62294;48.554;10.202;2023-02-10T00:40:45;17.67;;;6.50;;
73940;SDS011;62294;48.554;10.202;2023-02-10T00:43:12;31.17;;;10.00;;
73940;SDS011;62294;48.554;10.202;2023-02-10T00:45:38;20.45;;;7.55;;
73940;SDS011;62294;48.554;10.202;2023-02-10T00:48:05;23.50;;;7.82;;
73940;SDS011;62294;48.554;10.202;2023-02-10T00:50:31;31.90;;;12.05;;
73940;SDS011;62294;48.554;10.202;2023-02-10T00:52:57;16.38;;;8.50;;
73940;SDS011;62294;48.554;10.202;2023-02-10T00:55:24;19.58;;;7.22;;
73940;SDS011;62294;48.554;10.202;2023-02-10T00:57:51;19.08;;;7.28;;
73940;SDS011;62294;48.554;10.202;2023-02-10T01:00:17;16.65;;;7.05;;
73940;SDS011;62294;48.554;10.202;2023-02-10T01:02:44;12.05;;;5.50;;
73940;SDS011;62294;48.554;10.202;2023-02-10T01:05:10;13.48;;;6.40;;
73940;SDS011;62294;48.554;10.202;2023-02-10T01:07:37;17.50;;;6.15;;
73940;SDS011;62294;48.554;10.202;2023-02-10T01:10:04;12.75;;;6.38;;
73940;SDS011;62294;48.554;10.202;2023-02-10T01:12:30;16.27;;;7.32;;
73940;SDS011;62294;48.554;10.202;2023-02-10T01:14:57;21.77;;;9.20;;
73940;SDS011;62294;48.554;10.202;2023-02-10T01:17:23;12.38;;;6.43;;
73940;SDS011;62294;48.554;10.202;2023-02-10T01:19:50;12.52;;;4.72;;
73940;SDS011;62294;48.554;10.202;2023-02-10T01:22:17;15.35;;;6.35;;
73940;SDS011;62294;48.554;10.202;2023-02-10T01:24:44;15.75;;;5.90;;
73940;SDS011;62294;48.554;10.202;2023-02-10T01:27:11;16.52;;;5.35;;
73940;SDS011;62294;48.554;10.202;2023-02-10T01:29:37;16.50;;;7.90;;
73940;SDS011;62294;48.554;10.202;2023-02-10T01:32:04;13.15;;;6.35;;
73940;SDS011;62294;48.554;10.202;2023-02-10T01:34:30;10.32;;;4.20;;
73940;SDS011;62294;48.554;10.202;2023-02-10T01:36:56;7.47;;;3.13;;
73940;SDS011;62294;48.554;10.202;2023-02-10T01:39:23;13.55;;;5.82;;
73940;SDS011;62294;48.554;10.202;2023-02-10T01:41:50;20.25;;;8.38;;
73940;SDS011;62294;48.554;10.202;2023-02-10T01:46:46;15.43;;;7.07;;
73940;SDS011;62294;48.554;10.202;2023-02-10T01:49:14;9.50;;;3.28;;
73940;SDS011;62294;48.554;10.202;2023-02-10T01:54:22;19.23;;;5.47;;
73940;SDS011;62294;48.554;10.202;2023-02-10T01:56:53;7.25;;;4.07;;
73940;SDS011;62294;48.554;10.202;2023-02-10T01:59:20;14.43;;;6.32;;
73940;SDS011;62294;48.554;10.202;2023-02-10T02:01:49;7.95;;;3.88;;
73940;SDS011;62294;48.554;10.202;2023-02-10T02:04:16;15.57;;;5.15;;
73940;SDS011;62294;48.554;10.202;2023-02-10T02:06:43;7.15;;;3.83;;
73940;SDS011;62294;48.554;10.202;2023-02-10T02:09:11;13.85;;;5.80;;
73940;SDS011;62294;48.554;10.202;2023-02-10T02:11:53;5.93;;;4.13;;
73940;SDS011;62294;48.554;10.202;2023-02-10T02:34:06;8.32;;;4.97;;
73940;SDS011;62294;48.554;10.202;2023-02-10T02:36:34;8.88;;;3.42;;
73940;SDS011;62294;48.554;10.202;2023-02-10T02:39:05;8.60;;;2.95;;
73940;SDS011;62294;48.554;10.202;2023-02-10T02:41:32;9.95;;;4.53;;
73940;SDS011;62294;48.554;10.202;2023-02-10T02:43:59;17.80;;;7.18;;
73940;SDS011;62294;48.554;10.202;2023-02-10T02:46:35;7.00;;;4.45;;
73940;SDS011;62294;48.554;10.202;2023-02-10T02:49:14;5.10;;;2.30;;
73940;SDS011;62294;48.554;10.202;2023-02-10T02:51:52;10.10;;;5.07;;
73940;SDS011;62294;48.554;10.202;2023-02-10T02:54:34;11.32;;;4.82;;
73940;SDS011;62294;48.554;10.202;2023-02-10T02:57:14;5.60;;;3.70;;
73940;SDS011;62294;48.554;10.202;2023-02-10T03:02:19;7.60;;;2.80;;
73940;SDS011;62294;48.554;10.202;2023-02-10T03:04:47;13.20;;;6.07;;
73940;SDS011;62294;48.554;10.202;2023-02-10T03:07:14;13.07;;;6.53;;
73940;SDS011;62294;48.554;10.202;2023-02-10T03:09:41;11.68;;;3.72;;
73940;SDS011;62294;48.554;10.202;2023-02-10T03:12:07;11.02;;;5.18;;
73940;SDS011;62294;48.554;10.202;2023-02-10T03:14:34;10.52;;;5.32;;
73940;SDS011;62294;48.554;10.202;2023-02-10T03:17:00;13.10;;;5.72;;
73940;SDS011;62294;48.554;10.202;2023-02-10T03:19:27;20.10;;;7.28;;
73940;SDS011;62294;48.554;10.202;2023-02-10T03:21:53;14.20;;;5.95;;
73940;SDS011;62294;48.554;10.202;2023-02-10T03:24:20;19.35;;;6.63;;
73940;SDS011;62294;48.554;10.202;2023-02-10T03:26:47;21.75;;;8.75;;
73940;SDS011;62294;48.554;10.202;2023-02-10T03:29:14;13.55;;;6.88;;
73940;SDS011;62294;48.554;10.202;2023-02-10T03:31:41;11.23;;;6.57;;
73940;SDS011;62294;48.554;10.202;2023-02-10T03:34:07;19.98;;;7.15;;
73940;SDS011;62294;48.554;10.202;2023-02-10T03:36:34;12.13;;;5.75;;
73940;SDS011;62294;48.554;10.202;2023-02-10T03:39:01;16.05;;;5.90;;
73940;SDS011;62294;48.554;10.202;2023-02-10T03:41:28;18.73;;;5.38;;
73940;SDS011;62294;48.554;10.202;2023-02-10T03:43:55;20.52;;;8.23;;
73940;SDS011;62294;48.554;10.202;2023-02-10T03:46:22;11.00;;;4.32;;
73940;SDS011;62294;48.554;10.202;2023-02-10T03:48:48;13.15;;;6.75;;
73940;SDS011;62294;48.554;10.202;2023-02-10T03:51:15;13.40;;;5.88;;
73940;SDS011;62294;48.554;10.202;2023-02-10T03:53:41;20.98;;;7.65;;
73940;SDS011;62294;48.554;10.202;2023-02-10T03:56:08;17.33;;;7.35;;
73940;SDS011;62294;48.554;10.202;2023-02-10T03:58:35;12.25;;;6.70;;
73940;SDS011;62294;48.554;10.202;2023-02-10T04:01:12;24.40;;;9.55;;
73940;SDS011;62294;48.554;10.202;2023-02-10T04:03:39;9.88;;;5.15;;
73940;SDS011;62294;48.554;10.202;2023-02-10T04:06:08;16.17;;;6.78;;
73940;SDS011;62294;48.554;10.202;2023-02-10T04:08:34;7.88;;;3.72;;
73940;SDS011;62294;48.554;10.202;2023-02-10T04:11:02;12.73;;;5.95;;
73940;SDS011;62294;48.554;10.202;2023-02-10T04:13:29;9.05;;;4.72;;
73940;SDS011;62294;48.554;10.202;2023-02-10T04:18:33;5.68;;;4.32;;
73940;SDS011;62294;48.554;10.202;2023-02-10T04:21:01;19.20;;;7.75;;
73940;SDS011;62294;48.554;10.202;2023-02-10T04:23:29;7.85;;;3.78;;
73940;SDS011;62294;48.554;10.202;2023-02-10T04:25:56;3.28;;;2.75;;
73940;SDS011;62294;48.554;10.202;2023-02-10T04:28:23;7.00;;;4.30;;
73940;SDS011;62294;48.554;10.202;2023-02-10T04:30:53;10.90;;;5.32;;
73940;SDS011;62294;48.554;10.202;2023-02-10T04:33:24;18.13;;;6.70;;
73940;SDS011;62294;48.554;10.202;2023-02-10T04:35:51;3.22;;;2.53;;
73940;SDS011;62294;48.554;10.202;2023-02-10T04:38:18;13.02;;;3.75;;
73940;SDS011;62294;48.554;10.202;2023-02-10T04:40:46;13.57;;;4.75;;
73940;SDS011;62294;48.554;10.202;2023-02-10T04:43:12;15.88;;;6.15;;
73940;SDS011;62294;48.554;10.202;2023-02-10T04:45:39;18.42;;;6.30;;
73940;SDS011;62294;48.554;10.202;2023-02-10T04:48:06;11.75;;;3.97;;
73940;SDS011;62294;48.554;10.202;2023-02-10T04:50:33;7.80;;;4.18;;
73940;SDS011;62294;48.554;10.202;2023-02-10T04:53:01;11.70;;;3.92;;
73940;SDS011;62294;48.554;10.202;2023-02-10T04:55:28;15.32;;;6.82;;
73940;SDS011;62294;48.554;10.202;2023-02-10T04:57:54;12.48;;;6.20;;
73940;SDS011;62294;48.554;10.202;2023-02-10T05:00:21;15.40;;;6.07;;
73940;SDS011;62294;48.554;10.202;2023-02-10T05:02:48;12.75;;;5.22;;
73940;SDS011;62294;48.554;10.202;2023-02-10T05:05:14;9.02;;;5.75;;
73940;SDS011;62294;48.554;10.202;2023-02-10T05:07:41;12.07;;;5.75;;
73940;SDS011;62294;48.554;10.202;2023-02-10T05:10:07;20.65;;;7.57;;
73940;SDS011;62294;48.554;10.202;2023-02-10T05:12:34;10.55;;;5.95;;
73940;SDS011;62294;48.554;10.202;2023-02-10T05:15:01;4.20;;;2.58;;
73940;SDS011;62294;48.554;10.202;2023-02-10T05:17:27;10.32;;;3.63;;
73940;SDS011;62294;48.554;10.202;2023-02-10T05:19:54;7.60;;;3.33;;
73940;SDS011;62294;48.554;10.202;2023-02-10T05:22:21;11.70;;;6.00;;
73940;SDS011;62294;48.554;10.202;2023-02-10T05:24:50;8.05;;;4.10;;
73940;SDS011;62294;48.554;10.202;2023-02-10T05:27:17;7.80;;;4.53;;
73940;SDS011;62294;48.554;10.202;2023-02-10T05:29:44;12.77;;;5.57;;
73940;SDS011;62294;48.554;10.202;2023-02-10T05:32:11;10.77;;;4.53;;
73940;SDS011;62294;48.554;10.202;2023-02-10T05:34:37;13.02;;;5.28;;
73940;SDS011;62294;48.554;10.202;2023-02-10T05:37:04;6.05;;;3.08;;
73940;SDS011;62294;48.554;10.202;2023-02-10T05:39:30;15.15;;;5.55;;
73940;SDS011;62294;48.554;10.202;2023-02-10T05:41:57;9.55;;;5.82;;
73940;SDS011;62294;48.554;10.202;2023-02-10T05:44:26;9.60;;;5.10;;
73940;SDS011;62294;48.554;10.202;2023-02-10T05:46:55;9.07;;;4.20;;
73940;SDS011;62294;48.554;10.202;2023-02-10T05:49:21;8.05;;;4.22;;
73940;SDS011;62294;48.554;10.202;2023-02-10T05:51:48;16.38;;;6.32;;
73940;SDS011;62294;48.554;10.202;2023-02-10T05:54:17;11.20;;;5.88;;
73940;SDS011;62294;48.554;10.202;2023-02-10T05:56:43;13.75;;;6.28;;
73940;SDS011;62294;48.554;10.202;2023-02-10T05:59:11;15.93;;;5.10;;
73940;SDS011;62294;48.554;10.202;2023-02-10T06:01:40;8.20;;;2.83;;
73940;SDS011;62294;48.554;10.202;2023-02-10T06:04:06;7.63;;;3.25;;
73940;SDS011;62294;48.554;10.202;2023-02-10T06:06:33;16.08;;;5.28;;
73940;SDS011;62294;48.554;10.202;2023-02-10T06:09:00;6.82;;;2.72;;
73940;SDS011;62294;48.554;10.202;2023-02-10T06:11:26;10.23;;;4.75;;
73940;SDS011;62294;48.554;10.202;2023-02-10T06:13:52;10.55;;;4.82;;
73940;SDS011;62294;48.554;10.202;2023-02-10T06:16:19;16.00;;;7.45;;
73940;SDS011;62294;48.554;10.202;2023-02-10T06:18:45;19.02;;;5.40;;
73940;SDS011;62294;48.554;10.202;2023-02-10T06:21:14;11.73;;;5.35;;
73940;SDS011;62294;48.554;10.202;2023-02-10T06:23:41;7.97;;;4.30;;
73940;SDS011;62294;48.554;10.202;2023-02-10T06:26:08;12.95;;;6.20;;
73940;SDS011;62294;48.554;10.202;2023-02-10T06:28:35;12.35;;;4.05;;
73940;SDS011;62294;48.554;10.202;2023-02-10T06:31:01;12.65;;;6.72;;
73940;SDS011;62294;48.554;10.202;2023-02-10T06:33:29;15.88;;;5.38;;
73940;SDS011;62294;48.554;10.202;2023-02-10T06:35:55;8.65;;;4.25;;
73940;SDS011;62294;48.554;10.202;2023-02-10T06:38:22;9.30;;;4.65;;
73940;SDS011;62294;48.554;10.202;2023-02-10T06:40:49;6.50;;;3.50;;
73940;SDS011;62294;48.554;10.202;2023-02-10T06:43:15;19.77;;;8.70;;
73940;SDS011;62294;48.554;10.202;2023-02-10T06:45:41;14.25;;;5.28;;
73940;SDS011;62294;48.554;10.202;2023-02-10T06:48:08;11.18;;;4.32;;
73940;SDS011;62294;48.554;10.202;2023-02-10T06:50:34;10.88;;;4.40;;
73940;SDS011;62294;48.554;10.202;2023-02-10T06:53:01;10.07;;;5.68;;
73940;SDS011;62294;48.554;10.202;2023-02-10T06:55:28;12.48;;;5.85;;
73940;SDS011;62294;48.554;10.202;2023-02-10T06:57:57;12.55;;;4.63;;
73940;SDS011;62294;48.554;10.202;2023-02-10T07:00:24;14.50;;;4.60;;
73940;SDS011;62294;48.554;10.202;2023-02-10T07:02:54;12.70;;;6.00;;
73940;SDS011;62294;48.554;10.202;2023-02-10T07:05:21;10.65;;;5.15;;
73940;SDS011;62294;48.554;10.202;2023-02-10T07:07:47;9.43;;;4.32;;
73940;SDS011;62294;48.554;10.202;2023-02-10T07:10:14;8.40;;;4.60;;
73940;SDS011;62294;48.554;10.202;2023-02-10T07:12:40;12.32;;;4.05;;
73940;SDS011;62294;48.554;10.202;2023-02-10T07:15:07;15.35;;;7.63;;
73940;SDS011;62294;48.554;10.202;2023-02-10T07:17:34;9.88;;;3.00;;
73940;SDS011;62294;48.554;10.202;2023-02-10T07:20:02;16.38;;;5.82;;
73940;SDS011;62294;48.554;10.202;2023-02-10T07:22:30;12.15;;;6.35;;
73940;SDS011;62294;48.554;10.202;2023-02-10T07:24:56;15.40;;;5.35;;
73940;SDS011;62294;48.554;10.202;2023-02-10T07:27:24;15.05;;;6.10;;
73940;SDS011;62294;48.554;10.202;2023-02-10T07:29:50;10.40;;;4.80;;
73940;SDS011;62294;48.554;10.202;2023-02-10T07:32:16;23.08;;;7.97;;
73940;SDS011;62294;48.554;10.202;2023-02-10T07:34:43;16.63;;;4.38;;
73940;SDS011;62294;48.554;10.202;2023-02-10T07:37:10;12.57;;;6.75;;
73940;SDS011;62294;48.554;10.202;2023-02-10T07:39:36;11.75;;;4.25;;
73940;SDS011;62294;48.554;10.202;2023-02-10T07:42:03;11.10;;;5.40;;
73940;SDS011;62294;48.554;10.202;2023-02-10T07:44:29;10.20;;;4.88;;
73940;SDS011;62294;48.554;10.202;2023-02-10T07:46:56;7.78;;;3.78;;
73940;SDS011;62294;48.554;10.202;2023-02-10T07:49:23;10.68;;;5.20;;
73940;SDS011;62294;48.554;10.202;2023-02-10T07:51:52;14.50;;;6.13;;
73940;SDS011;62294;48.554;10.202;2023-02-10T07:54:19;18.17;;;7.18;;
73940;SDS011;62294;48.554;10.202;2023-02-10T07:56:47;20.90;;;8.82;;
73940;SDS011;62294;48.554;10.202;2023-02-10T07:59:13;16.45;;;7.32;;
73940;SDS011;62294;48.554;10.202;2023-02-10T08:01:40;21.00;;;9.63;;
73940;SDS011;62294;48.554;10.202;2023-02-10T08:04:09;13.10;;;6.78;;
73940;SDS011;62294;48.554;10.202;2023-02-10T08:06:36;25.33;;;10.10;;
73940;SDS011;62294;48.554;10.202;2023-02-10T08:09:02;23.80;;;9.55;;
73940;SDS011;62294;48.554;10.202;2023-02-10T08:11:30;20.20;;;10.50;;
73940;SDS011;62294;48.554;10.202;2023-02-10T08:13:58;28.02;;;11.32;;
73940;SDS011;62294;48.554;10.202;2023-02-10T08:16:26;22.05;;;11.07;;
73940;SDS011;62294;48.554;10.202;2023-02-10T08:18:53;24.08;;;11.43;;
73940;SDS011;62294;48.554;10.202;2023-02-10T08:21:20;32.90;;;13.50;;
73940;SDS011;62294;48.554;10.202;2023-02-10T08:23:47;39.53;;;14.38;;
73940;SDS011;62294;48.554;10.202;2023-02-10T08:26:20;41.80;;;16.77;;
73940;SDS011;62294;48.554;10.202;2023-02-10T08:28:49;60.13;;;20.67;;
73940;SDS011;62294;48.554;10.202;2023-02-10T08:31:15;54.13;;;19.60;;
73940;SDS011;62294;48.554;10.202;2023-02-10T08:33:42;43.63;;;18.40;;
73940;SDS011;62294;48.554;10.202;2023-02-10T08:36:12;50.63;;;19.30;;
73940;SDS011;62294;48.554;10.202;2023-02-10T08:38:40;53.97;;;18.60;;
73940;SDS011;62294;48.554;10.202;2023-02-10T08:41:07;46.55;;;20.15;;
73940;SDS011;62294;48.554;10.202;2023-02-10T08:43:34;45.00;;;20.23;;
73940;SDS011;62294;48.554;10.202;2023-02-10T08:46:00;44.15;;;19.05;;
73940;SDS011;62294;48.554;10.202;2023-02-10T08:48:27;40.53;;;19.02;;
73940;SDS011;62294;48.554;10.202;2023-02-10T08:50:54;38.60;;;17.02;;
73940;SDS011;62294;48.554;10.202;2023-02-10T08:53:21;43.70;;;21.10;;
73940;SDS011;62294;48.554;10.202;2023-02-10T08:55:55;40.17;;;19.23;;
73940;SDS011;62294;48.554;10.202;2023-02-10T08:58:26;40.83;;;19.83;;
73940;SDS011;62294;48.554;10.202;2023-02-10T09:00:52;39.10;;;20.42;;
73940;SDS011;62294;48.554;10.202;2023-02-10T09:03:19;39.05;;;18.17;;
73940;SDS011;62294;48.554;10.202;2023-02-10T09:05:45;36.55;;;16.40;;
73940;SDS011;62294;48.554;10.202;2023-02-10T09:08:12;37.58;;;16.85;;
73940;SDS011;62294;48.554;10.202;2023-02-10T09:10:40;42.08;;;17.83;;
73940;SDS011;62294;48.554;10.202;2023-02-10T09:13:07;43.67;;;18.65;;
73940;SDS011;62294;48.554;10.202;2023-02-10T09:15:37;41.88;;;17.63;;
73940;SDS011;62294;48.554;10.202;2023-02-10T09:18:05;40.00;;;18.25;;
73940;SDS011;62294;48.554;10.202;2023-02-10T09:20:32;34.05;;;17.10;;
73940;SDS011;62294;48.554;10.202;2023-02-10T09:22:59;38.75;;;18.45;;
73940;SDS011;62294;48.554;10.202;2023-02-10T09:25:25;36.20;;;16.23;;
73940;SDS011;62294;48.554;10.202;2023-02-10T09:27:52;35.72;;;16.92;;
73940;SDS011;62294;48.554;10.202;2023-02-10T09:30:20;34.47;;;15.95;;
73940;SDS011;62294;48.554;10.202;2023-02-10T09:32:47;34.45;;;15.55;;
73940;SDS011;62294;48.554;10.202;2023-02-10T09:35:14;31.23;;;15.88;;
73940;SDS011;62294;48.554;10.202;2023-02-10T09:37:40;31.65;;;14.63;;
73940;SDS011;62294;48.554;10.202;2023-02-10T09:40:10;31.52;;;13.65;;
73940;SDS011;62294;48.554;10.202;2023-02-10T09:42:54;26.52;;;11.98;;
73940;SDS011;62294;48.554;10.202;2023-02-10T09:45:31;32.95;;;15.02;;
73940;SDS011;62294;48.554;10.202;2023-02-10T09:48:08;35.63;;;16.60;;
73940;SDS011;62294;48.554;10.202;2023-02-10T09:53:53;34.88;;;15.38;;
73940;SDS011;62294;48.554;10.202;2023-02-10T09:56:21;29.55;;;14.73;;
73940;SDS011;62294;48.554;10.202;2023-02-10T09:58:53;31.92;;;17.67;;
73940;SDS011;62294;48.554;10.202;2023-02-10T10:01:35;31.80;;;14.35;;
73940;SDS011;62294;48.554;10.202;2023-02-10T10:04:08;18.92;;;10.35;;
73940;SDS011;62294;48.554;10.202;2023-02-10T10:09:23;26.95;;;11.88;;
73940;SDS011;62294;48.554;10.202;2023-02-10T10:12:10;31.05;;;14.05;;
73940;SDS011;62294;48.554;10.202;2023-02-10T10:14:42;32.45;;;15.65;;
73940;SDS011;62294;48.554;10.202;2023-02-10T10:25:07;20.65;;;11.15;;
73940;SDS011;62294;48.554;10.202;2023-02-10T10:30:51;24.25;;;10.63;;
73940;SDS011;62294;48.554;10.202;2023-02-10T10:33:36;29.40;;;14.13;;
73940;SDS011;62294;48.554;10.202;2023-02-10T10:36:43;30.52;;;14.88;;
73940;SDS011;62294;48.554;10.202;2023-02-10T10:42:00;37.80;;;16.98;;
73940;SDS011;62294;48.554;10.202;2023-02-10T10:44:31;25.08;;;13.15;;
73940;SDS011;62294;48.554;10.202;2023-02-10T10:47:12;39.40;;;16.77;;
73940;SDS011;62294;48.554;10.202;2023-02-10T10:49:46;59.85;;;21.33;;
73940;SDS011;62294;48.554;10.202;2023-02-10T10:52:29;48.25;;;19.50;;
73940;SDS011;62294;48.554;10.202;2023-02-10T10:54:58;25.63;;;11.70;;
73940;SDS011;62294;48.554;10.202;2023-02-10T10:57:27;24.95;;;10.93;;
73940;SDS011;62294;48.554;10.202;2023-02-10T11:03:00;23.00;;;10.10;;
73940;SDS011;62294;48.554;10.202;2023-02-10T11:05:32;24.42;;;11.90;;
73940;SDS011;62294;48.554;10.202;2023-02-10T11:08:01;22.35;;;12.30;;
73940;SDS011;62294;48.554;10.202;2023-02-10T11:13:29;18.85;;;10.00;;
73940;SDS011;62294;48.554;10.202;2023-02-10T11:16:12;34.85;;;14.52;;
73940;SDS011;62294;48.554;10.202;2023-02-10T11:18:58;21.75;;;10.80;;
73940;SDS011;62294;48.554;10.202;2023-02-10T11:21:38;23.83;;;11.77;;
73940;SDS011;62294;48.554;10.202;2023-02-10T11:24:19;28.58;;;12.23;;
73940;SDS011;62294;48.554;10.202;2023-02-10T11:27:00;21.08;;;9.20;;
73940;SDS011;62294;48.554;10.202;2023-02-10T11:29:32;39.22;;;16.58;;
73940;SDS011;62294;48.554;10.202;2023-02-10T11:32:01;26.23;;;10.05;;
73940;SDS011;62294;48.554;10.202;2023-02-10T11:34:32;25.52;;;13.80;;
73940;SDS011;62294;48.554;10.202;2023-02-10T11:37:09;16.85;;;9.10;;
73940;SDS011;62294;48.554;10.202;2023-02-10T11:39:38;24.60;;;11.02;;
73940;SDS011;62294;48.554;10.202;2023-02-10T11:42:11;22.48;;;10.82;;
73940;SDS011;62294;48.554;10.202;2023-02-10T11:44:51;22.95;;;11.30;;
73940;SDS011;62294;48.554;10.202;2023-02-10T11:47:27;31.42;;;12.15;;
73940;SDS011;62294;48.554;10.202;2023-02-10T11:49:55;30.48;;;13.48;;
73940;SDS011;62294;48.554;10.202;2023-02-10T11:52:24;25.58;;;11.63;;
73940;SDS011;62294;48.554;10.202;2023-02-10T11:54:54;34.55;;;11.65;;
73940;SDS011;62294;48.554;10.202;2023-02-10T12:06:51;35.78;;;16.15;;
73940;SDS011;62294;48.554;10.202;2023-02-10T12:12:16;31.23;;;13.20;;
73940;SDS011;62294;48.554;10.202;2023-02-10T12:15:00;24.50;;;11.00;;
73940;SDS011;62294;48.554;10.202;2023-02-10T12:28:48;21.15;;;9.40;;
73940;SDS011;62294;48.554;10.202;2023-02-10T12:46:36;26.85;;;10.95;;
73940;SDS011;62294;48.554;10.202;2023-02-10T12:52:07;26.98;;;11.02;;
73940;SDS011;62294;48.554;10.202;2023-02-10T12:54:52;24.02;;;12.75;;
73940;SDS011;62294;48.554;10.202;2023-02-10T12:57:33;26.02;;;12.23;;
73940;SDS011;62294;48.554;10.202;2023-02-10T13:00:24;20.45;;;10.50;;
73940;SDS011;62294;48.554;10.202;2023-02-10T13:02:57;15.95;;;8.82;;
73940;SDS011;62294;48.554;10.202;2023-02-10T13:05:35;32.63;;;18.60;;
73940;SDS011;62294;48.554;10.202;2023-02-10T13:08:09;31.17;;;10.68;;
73940;SDS011;62294;48.554;10.202;2023-02-10T13:11:15;32.20;;;13.52;;
73940;SDS011;62294;48.554;10.202;2023-02-10T13:13:38;18.38;;;9.25;;
73940;SDS011;62294;48.554;10.202;2023-02-10T13:21:18;27.85;;;12.55;;
73940;SDS011;62294;48.554;10.202;2023-02-10T13:24:11;22.85;;;10.20;;
73940;SDS011;62294;48.554;10.202;2023-02-10T13:29:40;30.38;;;14.90;;
73940;SDS011;62294;48.554;10.202;2023-02-10T13:34:54;29.17;;;13.38;;
73940;SDS011;62294;48.554;10.202;2023-02-10T13:39:54;29.63;;;13.23;;
73940;SDS011;62294;48.554;10.202;2023-02-10T13:42:25;25.08;;;12.85;;
73940;SDS011;62294;48.554;10.202;2023-02-10T13:47:38;24.63;;;10.45;;
73940;SDS011;62294;48.554;10.202;2023-02-10T14:00:25;28.50;;;12.90;;
73940;SDS011;62294;48.554;10.202;2023-02-10T14:03:01;19.75;;;8.85;;
73940;SDS011;62294;48.554;10.202;2023-02-10T14:05:38;36.05;;;14.75;;
73940;SDS011;62294;48.554;10.202;2023-02-10T14:08:31;32.75;;;15.00;;
73940;SDS011;62294;48.554;10.202;2023-02-10T14:11:26;19.98;;;9.63;;
73940;SDS011;62294;48.554;10.202;2023-02-10T14:14:03;22.67;;;12.00;;
73940;SDS011;62294;48.554;10.202;2023-02-10T14:16:43;24.90;;;11.20;;
73940;SDS011;62294;48.554;10.202;2023-02-10T14:19:45;33.78;;;13.30;;
73940;SDS011;62294;48.554;10.202;2023-02-10T14:22:25;19.60;;;9.25;;
73940;SDS011;62294;48.554;10.202;2023-02-10T14:25:13;26.95;;;12.55;;
73940;SDS011;62294;48.554;10.202;2023-02-10T14:27:49;23.83;;;11.48;;
73940;SDS011;62294;48.554;10.202;2023-02-10T14:30:21;28.73;;;13.02;;
73940;SDS011;62294;48.554;10.202;2023-02-10T14:32:51;26.63;;;9.27;;
73940;SDS011;62294;48.554;10.202;2023-02-10T14:35:19;27.65;;;9.13;;
73940;SDS011;62294;48.554;10.202;2023-02-10T14:37:57;24.30;;;11.77;;
73940;SDS011;62294;48.554;10.202;2023-02-10T14:40:26;25.63;;;11.90;;
73940;SDS011;62294;48.554;10.202;2023-02-10T14:42:55;27.33;;;13.00;;
73940;SDS011;62294;48.554;10.202;2023-02-10T14:45:25;28.83;;;12.63;;
73940;SDS011;62294;48.554;10.202;2023-02-10T14:47:54;35.28;;;14.45;;
73940;SDS011;62294;48.554;10.202;2023-02-10T14:50:27;31.02;;;14.35;;
73940;SDS011;62294;48.554;10.202;2023-02-10T14:52:57;31.55;;;14.13;;
73940;SDS011;62294;48.554;10.202;2023-02-10T14:58:03;28.92;;;13.10;;
73940;SDS011;62294;48.554;10.202;2023-02-10T15:00:37;30.23;;;14.60;;
73940;SDS011;62294;48.554;10.202;2023-02-10T15:03:06;26.42;;;12.65;;
73940;SDS011;62294;48.554;10.202;2023-02-10T15:05:38;28.48;;;12.88;;
73940;SDS011;62294;48.554;10.202;2023-02-10T15:08:12;28.33;;;12.88;;
73940;SDS011;62294;48.554;10.202;2023-02-10T15:10:45;33.63;;;11.65;;
73940;SDS011;62294;48.554;10.202;2023-02-10T15:13:20;34.22;;;14.98;;
73940;SDS011;62294;48.554;10.202;2023-02-10T15:15:52;32.70;;;15.65;;
73940;SDS011;62294;48.554;10.202;2023-02-10T15:18:19;36.08;;;15.55;;
73940;SDS011;62294;48.554;10.202;2023-02-10T15:20:51;35.78;;;14.70;;
73940;SDS011;62294;48.554;10.202;2023-02-10T15:23:22;32.38;;;16.48;;
73940;SDS011;62294;48.554;10.202;2023-02-10T15:26:17;30.77;;;13.07;;
73940;SDS011;62294;48.554;10.202;2023-02-10T15:28:45;29.98;;;12.40;;
73940;SDS011;62294;48.554;10.202;2023-02-10T15:31:26;29.17;;;11.95;;
73940;SDS011;62294;48.554;10.202;2023-02-10T15:33:58;23.98;;;11.00;;
73940;SDS011;62294;48.554;10.202;2023-02-10T15:39:01;24.58;;;11.77;;
73940;SDS011;62294;48.554;10.202;2023-02-10T15:41:39;26.55;;;10.30;;
73940;SDS011;62294;48.554;10.202;2023-02-10T15:46:49;26.08;;;9.88;;
73940;SDS011;62294;48.554;10.202;2023-02-10T15:49:17;27.70;;;11.23;;
73940;SDS011;62294;48.554;10.202;2023-02-10T15:51:46;22.80;;;10.52;;
73940;SDS011;62294;48.554;10.202;2023-02-10T15:54:19;22.63;;;10.38;;
73940;SDS011;62294;48.554;10.202;2023-02-10T15:56:54;25.95;;;9.50;;
73940;SDS011;62294;48.554;10.202;2023-02-10T15:59:23;23.73;;;10.65;;
73940;SDS011;62294;48.554;10.202;2023-02-10T16:01:55;24.02;;;10.40;;
73940;SDS011;62294;48.554;10.202;2023-02-10T16:04:22;27.77;;;10.75;;
73940;SDS011;62294;48.554;10.202;2023-02-10T16:06:49;20.55;;;9.35;;
73940;SDS011;62294;48.554;10.202;2023-02-10T16:09:16;25.75;;;11.00;;
73940;SDS011;62294;48.554;10.202;2023-02-10T16:11:44;26.60;;;11.10;;
73940;SDS011;62294;48.554;10.202;2023-02-10T16:14:11;29.75;;;10.88;;
73940;SDS011;62294;48.554;10.202;2023-02-10T16:16:39;28.70;;;11.25;;
73940;SDS011;62294;48.554;10.202;2023-02-10T16:19:11;22.33;;;8.77;;
73940;SDS011;62294;48.554;10.202;2023-02-10T16:21:40;27.60;;;11.60;;
73940;SDS011;62294;48.554;10.202;2023-02-10T16:24:13;25.05;;;10.43;;
73940;SDS011;62294;48.554;10.202;2023-02-10T16:26:40;26.85;;;11.27;;
73940;SDS011;62294;48.554;10.202;2023-02-10T16:29:12;24.20;;;10.52;;
73940;SDS011;62294;48.554;10.202;2023-02-10T16:31:40;26.02;;;10.73;;
73940;SDS011;62294;48.554;10.202;2023-02-10T16:34:08;19.73;;;9.63;;
73940;SDS011;62294;48.554;10.202;2023-02-10T16:36:35;26.10;;;10.27;;
73940;SDS011;62294;48.554;10.202;2023-02-10T16:39:02;25.13;;;10.13;;
73940;SDS011;62294;48.554;10.202;2023-02-10T16:41:30;22.83;;;10.60;;
73940;SDS011;62294;48.554;10.202;2023-02-10T16:43:56;19.23;;;9.60;;
73940;SDS011;62294;48.554;10.202;2023-02-10T16:46:23;26.15;;;11.52;;